sensor_id;sensor_type;location;lat;lon;timestamp;pressure;altitude;pressure_sealevel;temperature;humidity
26489;BME280;14169;43.684;10.484;2022-10-01T00:00:23;101299.88;;;15.14;100.00
26489;BME280;14169;43.684;10.484;2022-10-01T00:02:52;101308.53;;;15.16;100.00
26489;BME280;14169;43.684;10.484;2022-10-01T00:05:18;101310.34;;;15.14;100.00
26489;BME280;14169;43.684;10.484;2022-10-01T00:07:44;101314.56;;;15.18;100.00
26489;BME280;14169;43.684;10.484;2022-10-01T00:10:11;101321.50;;;15.19;100.00
26489;BME280;14169;43.684;10.484;2022-10-01T00:12:38;101316.22;;;15.21;100.00
26489;BME280;14169;43.684;10.484;2022-10-01T00:15:04;101309.06;;;15.24;100.00
26489;BME280;14169;43.684;10.484;2022-10-01T00:17:33;101305.47;;;15.27;100.00
26489;BME280;14169;43.684;10.484;2022-10-01T00:19:59;101315.19;;;15.25;100.00
26489;BME280;14169;43.684;10.484;2022-10-01T00:22:24;101313.38;;;15.25;100.00
26489;BME280;14169;43.684;10.484;2022-10-01T00:24:49;101314.25;;;15.26;100.00
26489;BME280;14169;43.684;10.484;2022-10-01T00:27:15;101312.41;;;15.28;100.00
26489;BME280;14169;43.684;10.484;2022-10-01T00:29:40;101309.78;;;15.28;100.00
26489;BME280;14169;43.684;10.484;2022-10-01T00:32:08;101309.78;;;15.28;100.00
26489;BME280;14169;43.684;10.484;2022-10-01T00:34:34;101303.63;;;15.29;100.00
26489;BME280;14169;43.684;10.484;2022-10-01T00:36:59;101304.53;;;15.28;100.00
26489;BME280;14169;43.684;10.484;2022-10-01T00:39:24;101308.13;;;15.25;100.00
26489;BME280;14169;43.684;10.484;2022-10-01T00:41:50;101304.59;;;15.26;100.00
26489;BME280;14169;43.684;10.484;2022-10-01T00:47:08;101297.97;;;15.17;100.00
26489;BME280;14169;43.684;10.484;2022-10-01T00:49:38;101297.25;;;15.14;100.00
26489;BME280;14169;43.684;10.484;2022-10-01T00:52:06;101289.44;;;15.12;100.00
26489;BME280;14169;43.684;10.484;2022-10-01T00:54:36;101298.09;;;15.14;100.00
26489;BME280;14169;43.684;10.484;2022-10-01T00:57:02;101288.38;;;15.16;100.00
26489;BME280;14169;43.684;10.484;2022-10-01T00:59:28;101297.06;;;15.18;100.00
26489;BME280;14169;43.684;10.484;2022-10-01T01:01:54;101300.47;;;15.21;100.00
26489;BME280;14169;43.684;10.484;2022-10-01T01:04:20;101300.50;;;15.19;100.00
26489;BME280;14169;43.684;10.484;2022-10-01T01:06:46;101299.59;;;15.20;100.00
26489;BME280;14169;43.684;10.484;2022-10-01T01:09:17;101294.53;;;15.15;100.00
26489;BME280;14169;43.684;10.484;2022-10-01T01:11:47;101305.97;;;15.14;100.00
26489;BME280;14169;43.684;10.484;2022-10-01T01:16:52;101301.88;;;15.07;100.00
26489;BME280;14169;43.684;10.484;2022-10-01T01:21:55;101311.66;;;15.04;100.00
26489;BME280;14169;43.684;10.484;2022-10-01T01:29:40;101315.97;;;15.05;100.00
26489;BME280;14169;43.684;10.484;2022-10-01T01:32:14;101321.03;;;15.09;100.00
26489;BME280;14169;43.684;10.484;2022-10-01T01:34:42;101320.06;;;15.12;100.00
26489;BME280;14169;43.684;10.484;2022-10-01T01:37:10;101322.69;;;15.12;100.00
26489;BME280;14169;43.684;10.484;2022-10-01T01:39:37;101320.84;;;15.14;100.00
26489;BME280;14169;43.684;10.484;2022-10-01T01:42:05;101333.06;;;15.15;100.00
26489;BME280;14169;43.684;10.484;2022-10-01T01:44:33;101339.16;;;15.15;100.00
26489;BME280;14169;43.684;10.484;2022-10-01T01:47:01;101318.09;;;15.17;100.00
26489;BME280;14169;43.684;10.484;2022-10-01T01:49:29;101323.31;;;15.18;100.00
26489;BME280;14169;43.684;10.484;2022-10-01T01:51:55;101323.41;;;15.15;100.00
26489;BME280;14169;43.684;10.484;2022-10-01T01:54:23;101325.25;;;15.13;100.00
26489;BME280;14169;43.684;10.484;2022-10-01T01:56:49;101331.28;;;15.15;100.00
26489;BME280;14169;43.684;10.484;2022-10-01T01:59:16;101326.97;;;15.14;100.00
26489;BME280;14169;43.684;10.484;2022-10-01T02:01:42;101323.41;;;15.15;100.00
26489;BME280;14169;43.684;10.484;2022-10-01T02:04:24;101324.38;;;15.13;100.00
26489;BME280;14169;43.684;10.484;2022-10-01T02:11:59;101331.97;;;15.21;100.00
26489;BME280;14169;43.684;10.484;2022-10-01T02:14:34;101334.06;;;15.12;100.00
26489;BME280;14169;43.684;10.484;2022-10-01T02:17:13;101325.50;;;15.07;100.00
26489;BME280;14169;43.684;10.484;2022-10-01T02:22:36;101322.88;;;15.07;100.00
26489;BME280;14169;43.684;10.484;2022-10-01T02:25:04;101331.69;;;15.06;100.00
26489;BME280;14169;43.684;10.484;2022-10-01T02:30:00;101341.94;;;15.12;100.00
26489;BME280;14169;43.684;10.484;2022-10-01T02:32:27;101349.97;;;15.08;100.00
26489;BME280;14169;43.684;10.484;2022-10-01T02:34:54;101355.09;;;15.11;100.00
26489;BME280;14169;43.684;10.484;2022-10-01T02:37:21;101357.00;;;15.07;100.00
26489;BME280;14169;43.684;10.484;2022-10-01T02:39:48;101354.25;;;15.10;100.00
26489;BME280;14169;43.684;10.484;2022-10-01T02:42:16;101351.88;;;15.04;100.00
26489;BME280;14169;43.684;10.484;2022-10-01T02:44:42;101348.31;;;15.05;100.00
26489;BME280;14169;43.684;10.484;2022-10-01T02:47:29;101353.72;;;15.02;100.00
26489;BME280;14169;43.684;10.484;2022-10-01T02:49:58;101353.03;;;14.97;100.00
26489;BME280;14169;43.684;10.484;2022-10-01T02:54:59;101359.22;;;14.96;100.00
26489;BME280;14169;43.684;10.484;2022-10-01T02:57:27;101377.88;;;14.89;100.00
26489;BME280;14169;43.684;10.484;2022-10-01T02:59:55;101378.84;;;14.86;100.00
26489;BME280;14169;43.684;10.484;2022-10-01T03:02:22;101389.34;;;14.86;100.00
26489;BME280;14169;43.684;10.484;2022-10-01T03:04:47;101386.00;;;14.83;100.00
26489;BME280;14169;43.684;10.484;2022-10-01T03:07:13;101384.09;;;14.86;100.00
26489;BME280;14169;43.684;10.484;2022-10-01T03:09:38;101395.63;;;14.82;100.00
26489;BME280;14169;43.684;10.484;2022-10-01T03:12:04;101400.13;;;14.79;100.00
26489;BME280;14169;43.684;10.484;2022-10-01T03:14:30;101402.75;;;14.79;100.00
26489;BME280;14169;43.684;10.484;2022-10-01T03:16:56;101398.59;;;14.73;100.00
26489;BME280;14169;43.684;10.484;2022-10-01T03:19:21;101396.81;;;14.74;100.00
26489;BME280;14169;43.684;10.484;2022-10-01T03:21:46;101395.16;;;14.71;100.00
26489;BME280;14169;43.684;10.484;2022-10-01T03:24:12;101402.13;;;14.72;100.00
26489;BME280;14169;43.684;10.484;2022-10-01T03:26:37;101395.13;;;14.73;100.00
26489;BME280;14169;43.684;10.484;2022-10-01T03:29:03;101394.50;;;14.66;100.00
26489;BME280;14169;43.684;10.484;2022-10-01T03:31:28;101389.31;;;14.65;100.00
26489;BME280;14169;43.684;10.484;2022-10-01T03:33:54;101397.91;;;14.68;100.00
26489;BME280;14169;43.684;10.484;2022-10-01T03:36:24;101401.44;;;14.67;100.00
26489;BME280;14169;43.684;10.484;2022-10-01T03:38:50;101398.81;;;14.67;100.00
26489;BME280;14169;43.684;10.484;2022-10-01T03:41:15;101400.63;;;14.65;100.00
26489;BME280;14169;43.684;10.484;2022-10-01T03:43:40;101398.09;;;14.64;100.00
26489;BME280;14169;43.684;10.484;2022-10-01T03:46:05;101397.97;;;14.67;100.00
26489;BME280;14169;43.684;10.484;2022-10-01T03:48:31;101402.31;;;14.68;100.00
26489;BME280;14169;43.684;10.484;2022-10-01T03:50:57;101406.69;;;14.67;100.00
26489;BME280;14169;43.684;10.484;2022-10-01T03:53:23;101411.03;;;14.68;100.00
26489;BME280;14169;43.684;10.484;2022-10-01T03:55:49;101420.72;;;14.66;100.00
26489;BME280;14169;43.684;10.484;2022-10-01T03:58:14;101407.72;;;14.63;100.00
26489;BME280;14169;43.684;10.484;2022-10-01T04:00:39;101408.75;;;14.59;100.00
26489;BME280;14169;43.684;10.484;2022-10-01T04:03:05;101413.94;;;14.61;100.00
26489;BME280;14169;43.684;10.484;2022-10-01T04:05:30;101419.22;;;14.59;100.00
26489;BME280;14169;43.684;10.484;2022-10-01T04:07:56;101422.84;;;14.57;100.00
26489;BME280;14169;43.684;10.484;2022-10-01T04:10:23;101427.28;;;14.55;100.00
26489;BME280;14169;43.684;10.484;2022-10-01T04:12:49;101436.91;;;14.54;100.00
26489;BME280;14169;43.684;10.484;2022-10-01T04:15:14;101437.88;;;14.52;100.00
26489;BME280;14169;43.684;10.484;2022-10-01T04:17:40;101434.63;;;14.45;100.00
26489;BME280;14169;43.684;10.484;2022-10-01T04:20:06;101431.25;;;14.42;100.00
26489;BME280;14169;43.684;10.484;2022-10-01T04:22:35;101441.69;;;14.43;100.00
26489;BME280;14169;43.684;10.484;2022-10-01T04:25:00;101439.28;;;14.37;100.00
26489;BME280;14169;43.684;10.484;2022-10-01T04:27:26;101435.09;;;14.31;100.00
26489;BME280;14169;43.684;10.484;2022-10-01T04:29:51;101438.06;;;14.22;100.00
26489;BME280;14169;43.684;10.484;2022-10-01T04:32:17;101448.00;;;14.13;100.00
26489;BME280;14169;43.684;10.484;2022-10-01T04:34:45;101444.75;;;14.06;100.00
26489;BME280;14169;43.684;10.484;2022-10-01T04:37:17;101444.00;;;14.03;100.00
26489;BME280;14169;43.684;10.484;2022-10-01T04:39:42;101450.78;;;14.08;100.00
26489;BME280;14169;43.684;10.484;2022-10-01T04:42:07;101448.03;;;14.11;100.00
26489;BME280;14169;43.684;10.484;2022-10-01T04:44:32;101449.84;;;14.11;100.00
26489;BME280;14169;43.684;10.484;2022-10-01T04:46:58;101449.13;;;14.06;100.00
26489;BME280;14169;43.684;10.484;2022-10-01T04:49:24;101438.75;;;14.03;100.00
26489;BME280;14169;43.684;10.484;2022-10-01T04:51:49;101444.97;;;14.00;100.00
26489;BME280;14169;43.684;10.484;2022-10-01T04:54:14;101450.25;;;13.99;100.00
26489;BME280;14169;43.684;10.484;2022-10-01T04:56:39;101450.34;;;13.96;100.00
26489;BME280;14169;43.684;10.484;2022-10-01T04:59:05;101455.72;;;13.93;100.00
26489;BME280;14169;43.684;10.484;2022-10-01T05:01:30;101454.84;;;13.92;100.00
26489;BME280;14169;43.684;10.484;2022-10-01T05:03:56;101471.63;;;13.87;100.00
26489;BME280;14169;43.684;10.484;2022-10-01T05:06:21;101479.50;;;13.85;100.00
26489;BME280;14169;43.684;10.484;2022-10-01T05:08:47;101478.78;;;13.82;100.00
26489;BME280;14169;43.684;10.484;2022-10-01T05:11:13;101490.09;;;13.82;100.00
26489;BME280;14169;43.684;10.484;2022-10-01T05:13:39;101496.16;;;13.84;100.00
26489;BME280;14169;43.684;10.484;2022-10-01T05:16:04;101494.22;;;13.89;100.00
26489;BME280;14169;43.684;10.484;2022-10-01T05:18:29;101503.06;;;13.87;100.00
26489;BME280;14169;43.684;10.484;2022-10-01T05:20:55;101494.28;;;13.88;100.00
26489;BME280;14169;43.684;10.484;2022-10-01T05:23:20;101495.00;;;13.93;100.00
26489;BME280;14169;43.684;10.484;2022-10-01T05:25:45;101496.69;;;13.94;100.00
26489;BME280;14169;43.684;10.484;2022-10-01T05:28:11;101510.66;;;13.94;100.00
26489;BME280;14169;43.684;10.484;2022-10-01T05:30:36;101505.47;;;13.93;100.00
26489;BME280;14169;43.684;10.484;2022-10-01T05:33:02;101504.50;;;13.95;100.00
26489;BME280;14169;43.684;10.484;2022-10-01T05:35:27;101498.38;;;13.96;100.00
26489;BME280;14169;43.684;10.484;2022-10-01T05:37:54;101501.06;;;13.93;100.00
26489;BME280;14169;43.684;10.484;2022-10-01T05:40:19;101499.53;;;13.88;100.00
26489;BME280;14169;43.684;10.484;2022-10-01T05:42:45;101497.63;;;13.93;100.00
26489;BME280;14169;43.684;10.484;2022-10-01T05:45:11;101514.13;;;13.95;100.00
26489;BME280;14169;43.684;10.484;2022-10-01T05:47:36;101513.97;;;13.99;100.00
26489;BME280;14169;43.684;10.484;2022-10-01T05:50:02;101509.59;;;14.00;100.00
26489;BME280;14169;43.684;10.484;2022-10-01T05:52:27;101520.19;;;13.97;100.00
26489;BME280;14169;43.684;10.484;2022-10-01T05:54:52;101516.78;;;13.93;100.00
26489;BME280;14169;43.684;10.484;2022-10-01T05:57:18;101517.72;;;13.92;100.00
26489;BME280;14169;43.684;10.484;2022-10-01T05:59:43;101514.13;;;13.95;100.00
26489;BME280;14169;43.684;10.484;2022-10-01T06:02:08;101511.41;;;13.98;100.00
26489;BME280;14169;43.684;10.484;2022-10-01T06:04:33;101514.63;;;14.06;100.00
26489;BME280;14169;43.684;10.484;2022-10-01T06:06:59;101525.63;;;14.17;100.00
26489;BME280;14169;43.684;10.484;2022-10-01T06:09:24;101519.25;;;14.24;100.00
26489;BME280;14169;43.684;10.484;2022-10-01T06:11:49;101523.34;;;14.32;100.00
26489;BME280;14169;43.684;10.484;2022-10-01T06:14:15;101530.19;;;14.37;100.00
26489;BME280;14169;43.684;10.484;2022-10-01T06:16:40;101533.78;;;14.34;100.00
26489;BME280;14169;43.684;10.484;2022-10-01T06:19:06;101534.88;;;14.27;100.00
26489;BME280;14169;43.684;10.484;2022-10-01T06:21:31;101536.13;;;14.15;100.00
26489;BME280;14169;43.684;10.484;2022-10-01T06:23:56;101545.81;;;14.13;100.00
26489;BME280;14169;43.684;10.484;2022-10-01T06:26:22;101549.19;;;14.17;100.00
26489;BME280;14169;43.684;10.484;2022-10-01T06:28:48;101549.09;;;14.20;100.00
26489;BME280;14169;43.684;10.484;2022-10-01T06:31:14;101546.19;;;14.27;100.00
26489;BME280;14169;43.684;10.484;2022-10-01T06:33:39;101544.34;;;14.31;100.00
26489;BME280;14169;43.684;10.484;2022-10-01T06:36:05;101547.69;;;14.36;100.00
26489;BME280;14169;43.684;10.484;2022-10-01T06:38:30;101560.66;;;14.39;100.00
26489;BME280;14169;43.684;10.484;2022-10-01T06:40:56;101567.59;;;14.42;100.00
26489;BME280;14169;43.684;10.484;2022-10-01T06:43:23;101564.69;;;14.49;100.00
26489;BME280;14169;43.684;10.484;2022-10-01T06:45:48;101568.81;;;14.56;100.00
26489;BME280;14169;43.684;10.484;2022-10-01T06:48:14;101568.50;;;14.65;100.00
26489;BME280;14169;43.684;10.484;2022-10-01T06:50:41;101565.94;;;14.64;100.00
26489;BME280;14169;43.684;10.484;2022-10-01T06:53:06;101571.66;;;14.75;100.00
26489;BME280;14169;43.684;10.484;2022-10-01T06:55:32;101574.09;;;14.79;100.00
26489;BME280;14169;43.684;10.484;2022-10-01T07:00:23;101575.09;;;14.77;100.00
26489;BME280;14169;43.684;10.484;2022-10-01T07:02:49;101574.91;;;14.81;100.00
26489;BME280;14169;43.684;10.484;2022-10-01T07:05:14;101571.59;;;14.76;100.00
26489;BME280;14169;43.684;10.484;2022-10-01T07:07:40;101576.91;;;14.75;100.00
26489;BME280;14169;43.684;10.484;2022-10-01T07:10:06;101586.31;;;14.80;100.00
26489;BME280;14169;43.684;10.484;2022-10-01T07:12:32;101589.03;;;14.77;100.00
26489;BME280;14169;43.684;10.484;2022-10-01T07:14:58;101586.25;;;14.82;100.00
26489;BME280;14169;43.684;10.484;2022-10-01T07:17:23;101589.16;;;14.74;100.00
26489;BME280;14169;43.684;10.484;2022-10-01T07:19:48;101590.56;;;14.84;100.00
26489;BME280;14169;43.684;10.484;2022-10-01T07:22:14;101606.06;;;14.90;100.00
26489;BME280;14169;43.684;10.484;2022-10-01T07:24:39;101610.97;;;14.99;100.00
26489;BME280;14169;43.684;10.484;2022-10-01T07:27:04;101606.72;;;14.97;100.00
26489;BME280;14169;43.684;10.484;2022-10-01T07:29:30;101610.97;;;14.99;100.00
26489;BME280;14169;43.684;10.484;2022-10-01T07:31:55;101609.06;;;15.04;100.00
26489;BME280;14169;43.684;10.484;2022-10-01T07:34:21;101611.16;;;15.18;100.00
26489;BME280;14169;43.684;10.484;2022-10-01T07:36:48;101614.53;;;15.22;100.00
26489;BME280;14169;43.684;10.484;2022-10-01T07:39:14;101618.44;;;15.35;100.00
26489;BME280;14169;43.684;10.484;2022-10-01T07:41:40;101618.56;;;15.55;100.00
26489;BME280;14169;43.684;10.484;2022-10-01T07:44:06;101629.75;;;15.60;100.00
26489;BME280;14169;43.684;10.484;2022-10-01T07:46:31;101626.06;;;15.64;100.00
26489;BME280;14169;43.684;10.484;2022-10-01T07:48:56;101627.44;;;15.74;100.00
26489;BME280;14169;43.684;10.484;2022-10-01T07:51:22;101628.09;;;15.79;100.00
26489;BME280;14169;43.684;10.484;2022-10-01T07:53:48;101622.81;;;15.80;100.00
26489;BME280;14169;43.684;10.484;2022-10-01T07:56:15;101613.44;;;16.17;100.00
26489;BME280;14169;43.684;10.484;2022-10-01T07:58:40;101605.63;;;16.35;100.00
26489;BME280;14169;43.684;10.484;2022-10-01T08:01:07;101607.00;;;16.45;100.00
26489;BME280;14169;43.684;10.484;2022-10-01T08:03:33;101614.28;;;16.79;100.00
26489;BME280;14169;43.684;10.484;2022-10-01T08:05:59;101614.97;;;17.03;100.00
26489;BME280;14169;43.684;10.484;2022-10-01T08:08:24;101622.13;;;17.19;100.00
26489;BME280;14169;43.684;10.484;2022-10-01T08:10:49;101629.44;;;17.33;100.00
26489;BME280;14169;43.684;10.484;2022-10-01T08:13:17;101648.91;;;17.49;100.00
26489;BME280;14169;43.684;10.484;2022-10-01T08:15:43;101651.19;;;17.75;100.00
26489;BME280;14169;43.684;10.484;2022-10-01T08:18:09;101661.72;;;17.75;100.00
26489;BME280;14169;43.684;10.484;2022-10-01T08:20:35;101673.41;;;17.88;100.00
26489;BME280;14169;43.684;10.484;2022-10-01T08:23:02;101665.91;;;17.98;100.00
26489;BME280;14169;43.684;10.484;2022-10-01T08:25:27;101683.00;;;18.26;100.00
26489;BME280;14169;43.684;10.484;2022-10-01T08:27:53;101685.28;;;18.34;100.00
26489;BME280;14169;43.684;10.484;2022-10-01T08:30:18;101697.31;;;18.39;100.00
26489;BME280;14169;43.684;10.484;2022-10-01T08:32:43;101697.19;;;18.60;100.00
26489;BME280;14169;43.684;10.484;2022-10-01T08:35:08;101705.50;;;18.86;100.00
26489;BME280;14169;43.684;10.484;2022-10-01T08:37:34;101697.03;;;18.97;100.00
26489;BME280;14169;43.684;10.484;2022-10-01T08:39:59;101707.91;;;18.91;100.00
26489;BME280;14169;43.684;10.484;2022-10-01T08:44:50;101715.84;;;19.08;100.00
26489;BME280;14169;43.684;10.484;2022-10-01T08:47:28;101725.53;;;19.07;100.00
26489;BME280;14169;43.684;10.484;2022-10-01T08:49:59;101742.38;;;19.05;100.00
26489;BME280;14169;43.684;10.484;2022-10-01T08:52:27;101746.75;;;19.06;100.00
26489;BME280;14169;43.684;10.484;2022-10-01T08:54:57;101744.44;;;19.17;100.00
26489;BME280;14169;43.684;10.484;2022-10-01T08:57:26;101764.94;;;19.29;100.00
26489;BME280;14169;43.684;10.484;2022-10-01T08:59:57;101765.72;;;19.48;100.00
26489;BME280;14169;43.684;10.484;2022-10-01T09:02:27;101767.44;;;19.65;100.00
26489;BME280;14169;43.684;10.484;2022-10-01T09:04:56;101771.09;;;19.62;100.00
26489;BME280;14169;43.684;10.484;2022-10-01T09:09:54;101783.25;;;19.99;100.00
26489;BME280;14169;43.684;10.484;2022-10-01T09:15:13;101783.22;;;20.32;100.00
26489;BME280;14169;43.684;10.484;2022-10-01T09:20:24;101792.03;;;20.93;100.00
26489;BME280;14169;43.684;10.484;2022-10-01T09:25:36;101810.19;;;21.15;100.00
26489;BME280;14169;43.684;10.484;2022-10-01T09:30:41;101821.03;;;21.69;100.00
26489;BME280;14169;43.684;10.484;2022-10-01T09:33:15;101822.06;;;21.67;100.00
26489;BME280;14169;43.684;10.484;2022-10-01T09:35:45;101828.16;;;21.83;100.00
26489;BME280;14169;43.684;10.484;2022-10-01T09:38:23;101825.78;;;22.21;100.00
26489;BME280;14169;43.684;10.484;2022-10-01T09:40:50;101819.19;;;22.54;100.00
26489;BME280;14169;43.684;10.484;2022-10-01T09:43:17;101823.34;;;22.58;100.00
26489;BME280;14169;43.684;10.484;2022-10-01T09:45:46;101830.66;;;22.82;100.00
26489;BME280;14169;43.684;10.484;2022-10-01T09:53:40;101815.78;;;23.57;100.00
26489;BME280;14169;43.684;10.484;2022-10-01T09:56:13;101819.84;;;23.76;100.00
26489;BME280;14169;43.684;10.484;2022-10-01T09:58:41;101818.38;;;23.84;100.00
26489;BME280;14169;43.684;10.484;2022-10-01T10:01:20;101812.06;;;23.98;100.00
26489;BME280;14169;43.684;10.484;2022-10-01T10:03:53;101803.19;;;24.22;100.00
26489;BME280;14169;43.684;10.484;2022-10-01T10:06:23;101806.50;;;24.62;100.00
26489;BME280;14169;43.684;10.484;2022-10-01T10:08:51;101811.22;;;24.82;100.00
26489;BME280;14169;43.684;10.484;2022-10-01T10:11:21;101814.66;;;24.95;100.00
26489;BME280;14169;43.684;10.484;2022-10-01T10:13:54;101811.28;;;25.17;100.00
26489;BME280;14169;43.684;10.484;2022-10-01T10:19:01;101805.53;;;25.56;100.00
26489;BME280;14169;43.684;10.484;2022-10-01T10:21:28;101815.22;;;25.46;100.00
26489;BME280;14169;43.684;10.484;2022-10-01T10:26:29;101812.94;;;25.53;100.00
26489;BME280;14169;43.684;10.484;2022-10-01T10:28:56;101819.38;;;24.68;100.00
26489;BME280;14169;43.684;10.484;2022-10-01T10:31:22;101811.03;;;23.75;100.00
26489;BME280;14169;43.684;10.484;2022-10-01T10:33:50;101808.16;;;23.14;100.00
26489;BME280;14169;43.684;10.484;2022-10-01T10:36:16;101821.44;;;22.60;100.00
26489;BME280;14169;43.684;10.484;2022-10-01T10:38:45;101815.81;;;22.79;100.00
26489;BME280;14169;43.684;10.484;2022-10-01T10:41:14;101808.44;;;23.61;100.00
26489;BME280;14169;43.684;10.484;2022-10-01T10:43:41;101802.06;;;24.50;100.00
26489;BME280;14169;43.684;10.484;2022-10-01T10:46:08;101808.53;;;24.59;100.00
26489;BME280;14169;43.684;10.484;2022-10-01T10:48:34;101816.44;;;23.86;100.00
26489;BME280;14169;43.684;10.484;2022-10-01T10:51:01;101822.47;;;23.25;100.00
26489;BME280;14169;43.684;10.484;2022-10-01T10:53:28;101811.41;;;23.44;100.00
26489;BME280;14169;43.684;10.484;2022-10-01T10:56:01;101814.91;;;24.20;100.00
26489;BME280;14169;43.684;10.484;2022-10-01T10:58:30;101808.34;;;24.13;100.00
26489;BME280;14169;43.684;10.484;2022-10-01T11:01:05;101813.72;;;24.73;100.00
26489;BME280;14169;43.684;10.484;2022-10-01T11:03:34;101812.44;;;24.89;100.00
26489;BME280;14169;43.684;10.484;2022-10-01T11:06:08;101808.22;;;25.22;100.00
26489;BME280;14169;43.684;10.484;2022-10-01T11:08:35;101806.41;;;25.11;100.00
26489;BME280;14169;43.684;10.484;2022-10-01T11:18:45;101809.06;;;25.11;100.00
26489;BME280;14169;43.684;10.484;2022-10-01T11:21:28;101805.03;;;24.58;100.00
26489;BME280;14169;43.684;10.484;2022-10-01T11:26:29;101800.41;;;25.42;100.00
26489;BME280;14169;43.684;10.484;2022-10-01T11:38:58;101797.91;;;26.83;100.00
26489;BME280;14169;43.684;10.484;2022-10-01T11:41:35;101796.13;;;26.19;100.00
26489;BME280;14169;43.684;10.484;2022-10-01T11:44:13;101793.56;;;25.62;100.00
26489;BME280;14169;43.684;10.484;2022-10-01T11:46:57;101803.91;;;25.32;100.00
26489;BME280;14169;43.684;10.484;2022-10-01T11:49:35;101810.97;;;24.62;100.00
26489;BME280;14169;43.684;10.484;2022-10-01T11:52:09;101809.75;;;25.37;100.00
26489;BME280;14169;43.684;10.484;2022-10-01T11:54:39;101809.34;;;25.19;100.00
26489;BME280;14169;43.684;10.484;2022-10-01T11:57:08;101812.84;;;24.49;100.00
26489;BME280;14169;43.684;10.484;2022-10-01T12:00:06;101819.28;;;23.58;100.00
26489;BME280;14169;43.684;10.484;2022-10-01T12:02:52;101817.44;;;24.21;100.00
26489;BME280;14169;43.684;10.484;2022-10-01T12:05:24;101807.41;;;25.21;100.00
26489;BME280;14169;43.684;10.484;2022-10-01T12:08:10;101809.00;;;24.76;100.00
26489;BME280;14169;43.684;10.484;2022-10-01T12:13:26;101809.53;;;25.05;98.56
26489;BME280;14169;43.684;10.484;2022-10-01T12:16:00;101807.41;;;26.00;94.61
26489;BME280;14169;43.684;10.484;2022-10-01T12:20:57;101810.81;;;25.80;81.31
26489;BME280;14169;43.684;10.484;2022-10-01T12:23:34;101827.09;;;25.77;75.99
26489;BME280;14169;43.684;10.484;2022-10-01T12:30:56;101823.09;;;24.89;85.77
26489;BME280;14169;43.684;10.484;2022-10-01T12:46:29;101824.63;;;24.21;100.00
26489;BME280;14169;43.684;10.484;2022-10-01T12:51:32;101837.81;;;24.22;100.00
26489;BME280;14169;43.684;10.484;2022-10-01T12:56:44;101816.19;;;23.51;100.00
26489;BME280;14169;43.684;10.484;2022-10-01T12:59:27;101821.44;;;23.66;100.00
26489;BME280;14169;43.684;10.484;2022-10-01T13:02:01;101811.78;;;24.51;100.00
26489;BME280;14169;43.684;10.484;2022-10-01T13:07:33;101802.91;;;25.22;89.51
26489;BME280;14169;43.684;10.484;2022-10-01T13:10:13;101810.84;;;24.40;98.35
26489;BME280;14169;43.684;10.484;2022-10-01T13:15:10;101799.88;;;25.72;99.97
26489;BME280;14169;43.684;10.484;2022-10-01T13:17:44;101794.03;;;26.33;94.03
26489;BME280;14169;43.684;10.484;2022-10-01T13:20:26;101809.13;;;26.23;83.74
26489;BME280;14169;43.684;10.484;2022-10-01T13:30:48;101833.16;;;22.44;100.00
26489;BME280;14169;43.684;10.484;2022-10-01T13:33:23;101824.53;;;21.98;100.00
26489;BME280;14169;43.684;10.484;2022-10-01T13:35:54;101816.50;;;23.34;100.00
26489;BME280;14169;43.684;10.484;2022-10-01T13:38:29;101821.69;;;23.63;100.00
26489;BME280;14169;43.684;10.484;2022-10-01T13:43:47;101840.97;;;22.33;100.00
26489;BME280;14169;43.684;10.484;2022-10-01T13:46:13;101829.78;;;22.68;100.00
26489;BME280;14169;43.684;10.484;2022-10-01T13:48:44;101833.84;;;22.74;100.00
26489;BME280;14169;43.684;10.484;2022-10-01T13:51:11;101832.81;;;24.18;100.00
26489;BME280;14169;43.684;10.484;2022-10-01T13:53:47;101825.91;;;25.11;100.00
26489;BME280;14169;43.684;10.484;2022-10-01T13:56:29;101816.28;;;25.44;100.00
26489;BME280;14169;43.684;10.484;2022-10-01T13:58:54;101815.44;;;25.89;97.34
26489;BME280;14169;43.684;10.484;2022-10-01T14:06:23;101818.56;;;26.05;89.64
26489;BME280;14169;43.684;10.484;2022-10-01T14:11:35;101824.28;;;26.12;87.97
26489;BME280;14169;43.684;10.484;2022-10-01T14:14:36;101839.47;;;25.89;90.06
26489;BME280;14169;43.684;10.484;2022-10-01T14:17:21;101842.34;;;25.64;89.66
26489;BME280;14169;43.684;10.484;2022-10-01T14:19:48;101839.00;;;25.49;94.25
26489;BME280;14169;43.684;10.484;2022-10-01T14:22:22;101848.78;;;24.18;97.74
26489;BME280;14169;43.684;10.484;2022-10-01T14:37:17;101828.81;;;21.72;100.00
26489;BME280;14169;43.684;10.484;2022-10-01T14:39:43;101825.88;;;22.19;100.00
26489;BME280;14169;43.684;10.484;2022-10-01T14:42:11;101832.81;;;21.79;100.00
26489;BME280;14169;43.684;10.484;2022-10-01T14:44:41;101818.38;;;22.40;100.00
26489;BME280;14169;43.684;10.484;2022-10-01T14:47:20;101822.16;;;24.05;100.00
26489;BME280;14169;43.684;10.484;2022-10-01T14:49:46;101833.41;;;24.83;100.00
26489;BME280;14169;43.684;10.484;2022-10-01T14:52:27;101831.75;;;24.93;100.00
26489;BME280;14169;43.684;10.484;2022-10-01T14:57:30;101847.31;;;24.39;100.00